Seabravery — 9HZS7 — position and weather

sailwx.info

Track history (hours):
 
Tides and Currents Weather Stations Pressure Air Temp Water Temp Dewpoint Dewpoint Depression Visibility Wind Speed Wind Dir Waves Ship Positions

Seabravery

Last reported at 2018-Jun-22 10:31 UTC. Time now 2018-Jun-22 20:39 UTC.
Position N 37°24' E 024°15'.

Length 244 m; draft 8.3 m.

Type: Tanker. MMSI: 215782000.

Date/timePositionNaut miles runAvg speedWind from/ knotsBaromVisibWave heightAir tempDewpointWater temp
2018-Jun-22 10:31N 37°24' E 024°15'010.7
2018-Jun-22 10:31N 37°24' E 024°15'610.5
2018-Jun-22 09:58N 37°20' E 024°10'810.4
2018-Jun-22 09:12N 37°14' E 024°02'210.6
2018-Jun-22 09:01N 37°13' E 024°01'510.7
2018-Jun-22 08:30N 37°09' E 023°56'1210.9
2018-Jun-22 07:22N 36°60' E 023°46'410.9
2018-Jun-22 07:01N 36°57' E 023°42'43210.3
2018-Jun-20 13:13N 36°37' E 014°43'710.8
2018-Jun-20 12:34N 36°39' E 014°35'310.5
2018-Jun-20 12:18N 36°40' E 014°32'310.3
2018-Jun-20 12:00N 36°41' E 014°28'5 9.9
2018-Jun-20 11:31N 36°42' E 014°22'510.3
2018-Jun-20 11:00N 36°44' E 014°16'611.5
2018-Jun-20 10:29N 36°46' E 014°09'612.1
2018-Jun-20 10:00N 36°49' E 014°03'611.7
2018-Jun-20 09:30N 36°51' E 013°56'611.3
2018-Jun-20 09:00N 36°53' E 013°49'611.2
2018-Jun-20 08:30N 36°55' E 013°43'511.0
2018-Jun-20 08:00N 36°57' E 013°37'510.8
2018-Jun-20 07:30N 36°60' E 013°30'  
Track history (hours):
 
Tides and Currents Weather Stations Pressure Air Temp Water Temp Dewpoint Dewpoint Depression Visibility Wind Speed Wind Dir Waves Ship Positions

Seabravery

Last reported at 2018-Jun-22 10:31 UTC. Time now 2018-Jun-22 20:39 UTC.
Position N 37°24' E 024°15'.

Length 244 m; draft 8.3 m.

Type: Tanker. MMSI: 215782000.

Date/timePositionNaut miles runAvg speedWind from/ knotsBaromVisibWave heightAir tempDewpointWater temp
2018-Jun-22 10:31N 37°24' E 024°15'010.7
2018-Jun-22 10:31N 37°24' E 024°15'610.5
2018-Jun-22 09:58N 37°20' E 024°10'810.4
2018-Jun-22 09:12N 37°14' E 024°02'210.6
2018-Jun-22 09:01N 37°13' E 024°01'510.7
2018-Jun-22 08:30N 37°09' E 023°56'1210.9
2018-Jun-22 07:22N 36°60' E 023°46'410.9
2018-Jun-22 07:01N 36°57' E 023°42'43210.3
2018-Jun-20 13:13N 36°37' E 014°43'710.8
2018-Jun-20 12:34N 36°39' E 014°35'310.5
2018-Jun-20 12:18N 36°40' E 014°32'310.3
2018-Jun-20 12:00N 36°41' E 014°28'5 9.9
2018-Jun-20 11:31N 36°42' E 014°22'510.3
2018-Jun-20 11:00N 36°44' E 014°16'611.5
2018-Jun-20 10:29N 36°46' E 014°09'612.1
2018-Jun-20 10:00N 36°49' E 014°03'611.7
2018-Jun-20 09:30N 36°51' E 013°56'611.3
2018-Jun-20 09:00N 36°53' E 013°49'611.2
2018-Jun-20 08:30N 36°55' E 013°43'511.0
2018-Jun-20 08:00N 36°57' E 013°37'510.8
2018-Jun-20 07:30N 36°60' E 013°30'  

Dump ship's entire track history